createdAt,value
2019-05-07T00:00:34.854Z,99006.34
2019-05-07T00:03:03.418Z,99010.22
2019-05-07T00:05:33.137Z,99010.70
2019-05-07T00:08:03.013Z,99001.92
2019-05-07T00:10:33.111Z,98997.11
2019-05-07T00:13:02.255Z,99007.10
2019-05-07T00:15:32.750Z,99004.76
2019-05-07T00:18:02.979Z,99004.28
2019-05-07T00:20:32.754Z,99005.79
2019-05-07T00:23:02.755Z,99006.09
2019-05-07T00:25:32.828Z,99005.95
2019-05-07T00:28:02.733Z,99005.17
2019-05-07T00:30:33.022Z,99003.40
2019-05-07T00:33:02.760Z,99006.03
2019-05-07T00:35:42.927Z,99001.06
2019-05-07T00:38:12.951Z,98988.64
2019-05-07T00:40:45.594Z,98990.08
2019-05-07T00:43:15.468Z,98993.08
2019-05-07T00:45:48.722Z,98995.22
2019-05-07T00:48:16.957Z,98993.06
2019-05-07T00:50:46.864Z,98998.75
2019-05-07T00:53:15.099Z,99008.41
2019-05-07T00:55:43.385Z,99009.61
2019-05-07T00:58:13.257Z,99008.28
2019-05-07T01:00:42.185Z,99000.89
2019-05-07T01:03:12.907Z,99003.05
2019-05-07T01:05:43.014Z,99005.28
2019-05-07T01:08:13.000Z,99004.27
2019-05-07T01:10:41.942Z,99007.21
2019-05-07T01:13:12.570Z,99004.48
2019-05-07T01:15:42.800Z,99005.66
2019-05-07T01:18:12.335Z,99005.27
2019-05-07T01:20:42.258Z,99009.67
2019-05-07T01:23:10.419Z,99012.17
2019-05-07T01:25:38.659Z,99016.11
2019-05-07T01:28:06.943Z,99023.52
2019-05-07T01:30:35.179Z,99023.05
2019-05-07T01:33:07.537Z,99029.38
2019-05-07T01:35:46.157Z,99023.14
2019-05-07T01:38:16.077Z,99032.31
2019-05-07T01:40:44.372Z,99029.58
2019-05-07T01:43:12.640Z,99034.67
2019-05-07T01:45:49.424Z,99029.42
2019-05-07T01:48:15.205Z,99027.81
2019-05-07T01:50:43.442Z,99039.70
2019-05-07T01:53:12.286Z,99034.35
2019-05-07T01:55:42.838Z,99036.52
2019-05-07T01:58:12.605Z,99036.89
2019-05-07T02:00:42.450Z,99037.86
2019-05-07T02:03:28.786Z,99039.70
2019-05-07T02:06:02.198Z,99037.91
2019-05-07T02:08:38.236Z,99037.43
2019-05-07T02:11:08.124Z,99049.30
2019-05-07T02:13:36.372Z,99042.28
2019-05-07T02:16:04.652Z,99040.73
2019-05-07T02:18:32.889Z,99041.26
2019-05-07T02:21:03.214Z,99047.42
2019-05-07T02:23:33.062Z,99045.88
2019-05-07T02:26:02.433Z,99046.39
2019-05-07T02:28:32.978Z,99044.91
2019-05-07T02:31:03.785Z,99044.83
2019-05-07T02:33:30.868Z,99041.83
2019-05-07T02:35:59.337Z,99039.23
2019-05-07T02:38:33.879Z,99042.26
2019-05-07T02:41:03.550Z,99045.34
2019-05-07T02:43:33.764Z,99044.56
2019-05-07T02:46:21.264Z,99040.32
2019-05-07T02:48:35.029Z,99049.17
2019-05-07T02:51:13.164Z,99050.00
2019-05-07T02:53:43.195Z,99047.98
2019-05-07T02:56:13.015Z,99049.17
2019-05-07T02:58:43.461Z,99048.63
2019-05-07T03:01:13.758Z,99049.14
2019-05-07T03:03:44.694Z,99052.73
2019-05-07T03:06:13.596Z,99053.08
2019-05-07T03:08:44.007Z,99052.49
2019-05-07T03:11:14.134Z,99049.06
2019-05-07T03:13:43.231Z,99056.33
2019-05-07T03:16:13.170Z,99055.69
2019-05-07T03:18:43.807Z,99055.28
2019-05-07T03:21:18.535Z,99047.85
2019-05-07T03:24:03.842Z,99052.65
2019-05-07T03:26:36.624Z,99053.75
2019-05-07T03:29:06.539Z,99056.92
2019-05-07T03:31:46.752Z,99061.72
2019-05-07T03:34:25.096Z,99061.81
2019-05-07T03:36:57.635Z,99062.17
2019-05-07T03:39:26.687Z,99053.63
2019-05-07T03:41:54.923Z,99060.00
2019-05-07T03:44:25.360Z,99053.41
2019-05-07T03:47:01.853Z,99058.11
2019-05-07T03:49:34.519Z,99062.91
2019-05-07T03:52:04.341Z,99058.00
2019-05-07T03:54:34.093Z,99060.91
2019-05-07T03:57:10.639Z,99058.68
2019-05-07T03:59:34.218Z,99066.90
2019-05-07T04:02:03.461Z,99069.50
2019-05-07T04:04:33.193Z,99066.02
2019-05-07T04:07:03.417Z,99070.38
2019-05-07T04:09:33.308Z,99067.30
2019-05-07T04:12:03.982Z,99073.12
2019-05-07T04:14:34.432Z,99077.43
2019-05-07T04:17:14.468Z,99069.19
2019-05-07T04:19:32.883Z,99076.60
2019-05-07T04:22:04.323Z,99075.75
2019-05-07T04:24:53.175Z,99078.12
2019-05-07T04:27:28.814Z,99083.28
2019-05-07T04:29:57.084Z,99085.91
2019-05-07T04:32:27.034Z,99087.34
2019-05-07T04:34:56.929Z,99090.33
2019-05-07T04:37:25.258Z,99087.94
2019-05-07T04:39:54.021Z,99087.14
2019-05-07T04:42:24.422Z,99091.54
2019-05-07T04:44:54.064Z,99089.77
2019-05-07T04:47:36.907Z,99091.99
2019-05-07T04:49:53.547Z,99093.56
2019-05-07T04:52:26.435Z,99093.42
2019-05-07T04:54:54.703Z,99095.19
2019-05-07T04:57:25.445Z,99092.73
2019-05-07T04:59:56.036Z,99092.48
2019-05-07T05:02:43.470Z,99087.20
2019-05-07T05:05:12.918Z,99089.56
2019-05-07T05:07:43.159Z,99093.08
2019-05-07T05:10:13.453Z,99089.94
2019-05-07T05:12:42.823Z,99088.28
2019-05-07T05:15:12.670Z,99091.79
2019-05-07T05:17:50.111Z,99095.13
2019-05-07T05:20:13.066Z,99104.58
2019-05-07T05:22:48.468Z,99100.64
2019-05-07T05:25:18.420Z,99102.06
2019-05-07T05:27:46.659Z,99104.77
2019-05-07T05:30:25.063Z,99102.76
2019-05-07T05:32:53.305Z,99106.32
2019-05-07T05:35:22.215Z,99102.25
2019-05-07T05:37:52.077Z,99101.98
2019-05-07T05:40:22.721Z,99110.17
2019-05-07T05:42:58.407Z,99113.44
2019-05-07T05:45:42.434Z,99117.81
2019-05-07T05:48:10.234Z,99116.20
2019-05-07T05:50:45.962Z,99116.73
2019-05-07T05:53:21.903Z,99116.37
2019-05-07T05:55:52.787Z,99115.89
2019-05-07T05:58:39.128Z,99115.08
2019-05-07T06:01:09.076Z,99117.70
2019-05-07T06:03:44.657Z,99115.24
2019-05-07T06:06:14.593Z,99118.09
2019-05-07T06:08:52.514Z,99120.23
2019-05-07T06:11:27.922Z,99119.81
2019-05-07T06:14:15.744Z,99120.75
2019-05-07T06:16:45.662Z,99123.28
2019-05-07T06:19:15.546Z,99118.72
2019-05-07T06:21:45.467Z,99110.30
2019-05-07T06:24:18.019Z,99118.20
2019-05-07T06:26:46.251Z,99121.92
2019-05-07T06:29:14.521Z,99117.97
2019-05-07T06:31:44.399Z,99120.10
2019-05-07T06:34:12.837Z,99118.54
2019-05-07T06:36:42.426Z,99119.36
2019-05-07T06:39:15.299Z,99121.82
2019-05-07T06:41:48.163Z,99122.44
2019-05-07T06:44:18.075Z,99119.81
2019-05-07T06:46:46.312Z,99126.95
2019-05-07T06:49:14.591Z,99134.63
2019-05-07T06:51:42.829Z,99128.22
2019-05-07T06:54:12.980Z,99124.50
2019-05-07T06:56:42.120Z,99119.11
2019-05-07T06:59:12.973Z,99122.61
2019-05-07T07:01:45.476Z,99123.16
2019-05-07T07:04:18.248Z,99128.94
2019-05-07T07:06:48.144Z,99133.79
2019-05-07T07:09:33.144Z,99133.23
2019-05-07T07:12:12.884Z,99126.58
2019-05-07T07:14:42.390Z,99128.22
2019-05-07T07:17:12.926Z,99126.55
2019-05-07T07:19:42.814Z,99125.30
2019-05-07T07:22:13.022Z,99126.30
2019-05-07T07:24:42.414Z,99126.39
2019-05-07T07:27:12.993Z,99120.60
2019-05-07T07:29:44.963Z,99122.97
2019-05-07T07:32:14.229Z,99117.28
2019-05-07T07:34:46.870Z,99122.52
2019-05-07T07:37:19.519Z,99115.59
2019-05-07T07:39:47.746Z,99113.01
2019-05-07T07:42:16.035Z,99114.27
2019-05-07T07:44:44.265Z,99114.81
2019-05-07T07:47:13.010Z,99112.85
2019-05-07T07:49:42.069Z,99113.68
2019-05-07T07:52:12.228Z,99111.08
2019-05-07T07:54:42.667Z,99106.91
2019-05-07T07:57:12.635Z,99109.46
2019-05-07T07:59:45.790Z,99110.01
2019-05-07T08:02:24.646Z,99115.13
2019-05-07T08:04:52.894Z,99118.58
2019-05-07T08:07:22.806Z,99109.31
2019-05-07T08:09:52.018Z,99112.66
2019-05-07T08:12:22.184Z,99115.66
2019-05-07T08:14:51.927Z,99115.42
2019-05-07T08:17:22.327Z,99107.32
2019-05-07T08:19:51.956Z,99110.87
2019-05-07T08:22:22.389Z,99107.11
2019-05-07T08:24:51.896Z,99111.71
2019-05-07T08:27:22.255Z,99104.80
2019-05-07T08:29:52.301Z,99098.21
2019-05-07T08:32:22.349Z,99100.02
2019-05-07T08:35:14.105Z,99085.50
2019-05-07T08:37:42.699Z,99095.72
2019-05-07T08:40:12.838Z,99097.28
2019-05-07T08:42:41.888Z,99100.52
2019-05-07T08:45:28.501Z,99100.69
2019-05-07T08:47:58.396Z,99096.70
2019-05-07T08:50:26.665Z,99097.78
2019-05-07T08:52:54.892Z,99095.48
2019-05-07T08:55:23.160Z,99096.47
2019-05-07T08:57:52.485Z,99099.09
2019-05-07T09:00:22.800Z,99099.01
2019-05-07T09:02:52.447Z,99097.71
2019-05-07T09:05:22.106Z,99093.05
2019-05-07T09:07:51.760Z,99089.77
2019-05-07T09:10:21.830Z,99085.52
2019-05-07T09:12:50.108Z,99089.16
2019-05-07T09:15:18.338Z,99087.92
2019-05-07T09:17:46.726Z,99084.59
2019-05-07T09:20:14.963Z,99079.00
2019-05-07T09:22:43.260Z,99084.67
2019-05-07T09:25:12.903Z,99082.31
2019-05-07T09:27:46.300Z,99087.16
2019-05-07T09:30:28.249Z,99085.48
2019-05-07T09:33:05.868Z,99084.20
2019-05-07T09:35:35.738Z,99079.00
2019-05-07T09:38:04.259Z,99080.78
2019-05-07T09:40:32.488Z,99080.23
2019-05-07T09:43:02.557Z,99078.73
2019-05-07T09:45:32.831Z,99078.55
2019-05-07T09:48:02.908Z,99075.97
2019-05-07T09:50:32.562Z,99076.09
2019-05-07T09:53:02.284Z,99077.91
2019-05-07T09:55:32.549Z,99072.86
2019-05-07T09:58:02.012Z,99067.56
2019-05-07T10:00:32.000Z,99069.74
2019-05-07T10:03:00.616Z,99060.50
2019-05-07T10:05:29.031Z,99069.72
2019-05-07T10:07:57.382Z,99069.21
2019-05-07T10:10:25.673Z,99065.72
2019-05-07T10:12:55.547Z,99058.28
2019-05-07T10:15:23.825Z,99055.63
2019-05-07T10:17:56.672Z,99054.70
2019-05-07T10:20:24.952Z,99058.22
2019-05-07T10:22:53.173Z,99049.88
2019-05-07T10:25:22.464Z,99049.87
2019-05-07T10:27:53.027Z,99050.36
2019-05-07T10:30:21.841Z,99042.83
2019-05-07T10:32:52.560Z,99044.96
2019-05-07T10:35:22.786Z,99049.80
2019-05-07T10:37:52.587Z,99043.70
2019-05-07T10:40:22.269Z,99046.82
2019-05-07T10:42:51.924Z,99046.83
2019-05-07T10:45:42.025Z,99049.92
2019-05-07T10:48:17.872Z,99043.73
2019-05-07T10:50:53.656Z,99039.75
2019-05-07T10:53:22.983Z,99031.81
2019-05-07T10:55:51.242Z,99035.71
2019-05-07T10:58:19.517Z,99036.59
2019-05-07T11:00:48.312Z,99032.19
2019-05-07T11:03:16.597Z,99031.66
2019-05-07T11:05:44.836Z,99041.05
2019-05-07T11:08:13.125Z,99030.93
2019-05-07T11:10:41.889Z,99030.06
2019-05-07T11:13:10.265Z,99025.61
2019-05-07T11:15:39.602Z,99024.22
2019-05-07T11:18:12.735Z,99021.27
2019-05-07T11:20:49.882Z,99018.87
2019-05-07T11:23:11.470Z,99015.91
2019-05-07T11:25:41.953Z,99014.16
2019-05-07T11:28:09.699Z,99016.39
2019-05-07T11:30:38.049Z,99005.80
2019-05-07T11:33:06.455Z,98996.84
2019-05-07T11:35:34.724Z,98991.43
2019-05-07T11:38:17.435Z,98990.84
2019-05-07T11:40:34.829Z,98988.64
2019-05-07T11:43:07.352Z,98989.13
2019-05-07T11:45:37.369Z,98987.59
2019-05-07T11:48:06.283Z,98987.58
2019-05-07T11:50:45.108Z,98987.55
2019-05-07T11:53:22.096Z,98980.93
2019-05-07T11:55:52.322Z,98977.30
2019-05-07T11:58:21.974Z,98966.66
2019-05-07T12:00:52.233Z,98974.20
2019-05-07T12:03:22.129Z,98968.90
2019-05-07T12:05:52.521Z,98970.78
2019-05-07T12:08:22.371Z,98954.27
2019-05-07T12:10:51.801Z,98956.72
2019-05-07T12:13:21.766Z,98955.70
2019-05-07T12:15:52.166Z,98966.34
2019-05-07T12:18:22.500Z,98960.17
2019-05-07T12:20:53.836Z,98960.71
2019-05-07T12:23:22.452Z,98957.23
2019-05-07T12:25:50.401Z,98956.37
2019-05-07T12:28:19.348Z,98954.59
2019-05-07T12:30:49.222Z,98951.06
2019-05-07T12:33:32.496Z,98949.29
2019-05-07T12:36:01.970Z,98949.72
2019-05-07T12:38:32.259Z,98946.63
2019-05-07T12:41:02.486Z,98943.14
2019-05-07T12:43:31.936Z,98933.43
2019-05-07T12:46:02.740Z,98932.12
2019-05-07T12:48:30.445Z,98929.48
2019-05-07T12:50:58.740Z,98931.18
2019-05-07T12:53:28.604Z,98929.46
2019-05-07T12:55:58.523Z,98927.37
2019-05-07T12:58:26.925Z,98932.69
2019-05-07T13:00:56.837Z,98936.00
2019-05-07T13:03:26.698Z,98930.75
2019-05-07T13:05:54.975Z,98926.77
2019-05-07T13:08:23.505Z,98925.87
2019-05-07T13:10:51.984Z,98928.94
2019-05-07T13:13:20.274Z,98919.70
2019-05-07T13:15:48.571Z,98920.16
2019-05-07T13:18:16.817Z,98924.98
2019-05-07T13:20:45.079Z,98928.05
2019-05-07T13:23:13.311Z,98921.88
2019-05-07T13:25:42.910Z,98916.56
2019-05-07T13:28:11.836Z,98917.47
2019-05-07T13:30:43.599Z,98916.59
2019-05-07T13:33:12.196Z,98911.31
2019-05-07T13:35:41.980Z,98907.31
2019-05-07T13:38:14.702Z,98903.75
2019-05-07T13:40:43.960Z,98905.95
2019-05-07T13:43:28.991Z,98905.55
2019-05-07T13:46:07.804Z,98897.56
2019-05-07T13:48:37.676Z,98889.60
2019-05-07T13:51:05.970Z,98886.11
2019-05-07T13:53:34.208Z,98898.92
2019-05-07T13:56:02.489Z,98886.61
2019-05-07T13:58:32.749Z,98886.18
2019-05-07T14:01:22.839Z,98879.56
2019-05-07T14:03:50.640Z,98874.61
2019-05-07T14:06:36.488Z,98874.57
2019-05-07T14:09:11.283Z,98867.94
2019-05-07T14:11:41.951Z,98870.59
2019-05-07T14:14:09.506Z,98875.30
2019-05-07T14:16:37.898Z,98863.12
2019-05-07T14:19:06.267Z,98859.30
2019-05-07T14:21:34.546Z,98861.93
2019-05-07T14:24:02.780Z,98862.34
2019-05-07T14:26:32.572Z,98860.11
2019-05-07T14:29:01.936Z,98844.92
2019-05-07T14:31:33.547Z,98845.79
2019-05-07T14:34:04.917Z,98846.13
2019-05-07T14:36:43.871Z,98843.45
2019-05-07T14:39:12.150Z,98839.50
2019-05-07T14:41:42.636Z,98842.06
2019-05-07T14:44:18.016Z,98841.97
2019-05-07T14:46:51.537Z,98842.82
2019-05-07T14:49:16.233Z,98840.25
2019-05-07T14:51:44.475Z,98833.33
2019-05-07T14:54:12.773Z,98834.48
2019-05-07T14:56:46.488Z,98835.11
2019-05-07T14:59:14.774Z,98844.03
2019-05-07T15:01:43.117Z,98837.89
2019-05-07T15:04:12.928Z,98832.64
2019-05-07T15:06:41.735Z,98835.30
2019-05-07T15:09:11.965Z,98835.73
2019-05-07T15:11:42.332Z,98837.08
2019-05-07T15:14:11.880Z,98834.00
2019-05-07T15:16:40.006Z,98836.66
2019-05-07T15:19:08.234Z,98839.31
2019-05-07T15:21:36.523Z,98830.04
2019-05-07T15:24:04.980Z,98833.55
2019-05-07T15:26:34.590Z,98839.69
2019-05-07T15:29:07.940Z,98828.22
2019-05-07T15:31:42.266Z,98832.61
2019-05-07T15:34:12.371Z,98827.31
2019-05-07T15:36:42.392Z,98820.64
2019-05-07T15:39:10.581Z,98826.42
2019-05-07T15:41:38.862Z,98820.65
2019-05-07T15:44:07.314Z,98830.41
2019-05-07T15:46:35.542Z,98833.11
2019-05-07T15:49:04.129Z,98827.36
2019-05-07T15:51:32.860Z,98824.22
2019-05-07T15:54:03.515Z,98817.13
2019-05-07T15:56:32.411Z,98823.64
2019-05-07T15:59:02.260Z,98819.30
2019-05-07T16:01:30.779Z,98820.70
2019-05-07T16:03:59.065Z,98814.14
2019-05-07T16:06:27.368Z,98819.05
2019-05-07T16:08:57.292Z,98818.09
2019-05-07T16:11:25.654Z,98811.47
2019-05-07T16:14:07.216Z,98814.98
2019-05-07T16:16:39.801Z,98822.91
2019-05-07T16:19:24.979Z,98821.26
2019-05-07T16:21:53.223Z,98816.44
2019-05-07T16:24:22.535Z,98814.65
2019-05-07T16:26:52.334Z,98811.17
2019-05-07T16:29:22.487Z,98811.16
2019-05-07T16:31:52.157Z,98807.17
2019-05-07T16:34:22.016Z,98811.13
2019-05-07T16:36:50.953Z,98807.16
2019-05-07T16:39:19.188Z,98803.70
2019-05-07T16:41:47.474Z,98798.83
2019-05-07T16:44:15.709Z,98805.05
2019-05-07T16:46:44.044Z,98794.03
2019-05-07T16:49:12.542Z,98800.67
2019-05-07T16:51:44.262Z,98794.52
2019-05-07T16:54:12.171Z,98795.41
2019-05-07T16:56:42.793Z,98792.33
2019-05-07T16:59:12.621Z,98792.36
2019-05-07T17:01:42.881Z,98789.69
2019-05-07T17:04:12.183Z,98788.83
2019-05-07T17:06:42.553Z,98789.25
2019-05-07T17:09:13.586Z,98794.09
2019-05-07T17:11:43.665Z,98794.99
2019-05-07T17:14:12.909Z,98795.84
2019-05-07T17:16:41.594Z,98794.50
2019-05-07T17:19:11.796Z,98800.70
2019-05-07T17:21:42.930Z,98794.10
2019-05-07T17:24:11.962Z,98788.39
2019-05-07T17:26:42.318Z,98793.69
2019-05-07T17:29:12.044Z,98792.80
2019-05-07T17:31:42.460Z,98797.19
2019-05-07T17:34:11.775Z,98800.73
2019-05-07T17:36:42.205Z,98803.82
2019-05-07T17:39:12.165Z,98799.84
2019-05-07T17:41:40.261Z,98798.51
2019-05-07T17:44:08.567Z,98803.36
2019-05-07T17:46:36.809Z,98799.38
2019-05-07T17:49:05.071Z,98798.52
2019-05-07T17:51:46.247Z,98799.38
2019-05-07T17:54:14.705Z,98798.50
2019-05-07T17:56:43.669Z,98794.09
2019-05-07T17:59:12.358Z,98803.36
2019-05-07T18:01:57.371Z,98793.21
2019-05-07T18:04:25.644Z,98795.86
2019-05-07T18:06:53.872Z,98791.91
2019-05-07T18:09:22.652Z,98788.36
2019-05-07T18:11:52.154Z,98791.02
2019-05-07T18:14:22.808Z,98785.77
2019-05-07T18:16:58.052Z,98786.18
2019-05-07T18:19:27.632Z,98781.80
2019-05-07T18:21:55.876Z,98775.18
2019-05-07T18:24:24.103Z,98774.78
2019-05-07T18:26:54.366Z,98776.55
2019-05-07T18:29:22.680Z,98774.76
2019-05-07T18:31:58.272Z,98771.27
2019-05-07T18:34:26.503Z,98767.69
2019-05-07T18:36:54.780Z,98773.42
2019-05-07T18:39:23.019Z,98769.47
2019-05-07T18:41:52.300Z,98769.90
2019-05-07T18:44:22.336Z,98769.91
2019-05-07T18:46:52.785Z,98773.87
2019-05-07T18:49:20.851Z,98770.81
2019-05-07T18:51:49.422Z,98775.20
2019-05-07T18:54:27.795Z,98779.17
2019-05-07T18:56:47.920Z,98775.17
2019-05-07T18:59:17.037Z,98778.70
2019-05-07T19:01:45.325Z,98777.38
2019-05-07T19:04:13.593Z,98776.50
2019-05-07T19:06:42.448Z,98777.80
2019-05-07T19:09:11.373Z,98776.92
2019-05-07T19:11:39.634Z,98780.00
2019-05-07T19:14:07.950Z,98781.77
2019-05-07T19:16:36.196Z,98783.52
2019-05-07T19:19:04.486Z,98781.77
2019-05-07T19:21:32.911Z,98779.10
2019-05-07T19:24:02.333Z,98770.30
2019-05-07T19:26:30.704Z,98774.67
2019-05-07T19:28:59.042Z,98774.67
2019-05-07T19:31:27.475Z,98779.98
2019-05-07T19:33:55.788Z,98779.10
2019-05-07T19:36:24.029Z,98780.39
2019-05-07T19:38:53.957Z,98782.55
2019-05-07T19:41:22.534Z,98781.67
2019-05-07T19:43:52.805Z,98775.95
2019-05-07T19:46:22.816Z,98777.23
2019-05-07T19:48:52.065Z,98771.91
2019-05-07T19:51:20.680Z,98764.43
2019-05-07T19:53:48.945Z,98765.75
2019-05-07T19:56:18.898Z,98767.12
2019-05-07T19:58:47.185Z,98767.13
2019-05-07T20:01:17.225Z,98766.28
2019-05-07T20:03:45.501Z,98763.20
2019-05-07T20:06:13.823Z,98762.31
2019-05-07T20:08:43.712Z,98756.16
2019-05-07T20:11:28.995Z,98754.40
2019-05-07T20:13:57.223Z,98749.56
2019-05-07T20:16:25.512Z,98750.41
2019-05-07T20:18:53.766Z,98748.16
2019-05-07T20:21:22.924Z,98747.25
2019-05-07T20:23:52.652Z,98745.08
2019-05-07T20:26:23.193Z,98749.05
2019-05-07T20:28:52.596Z,98740.25
2019-05-07T20:31:22.607Z,98742.89
2019-05-07T20:33:53.046Z,98741.13
2019-05-07T20:36:21.227Z,98740.25
2019-05-07T20:38:51.952Z,98742.89
2019-05-07T20:41:19.513Z,98744.20
2019-05-07T20:43:47.929Z,98744.64
2019-05-07T20:46:16.170Z,98738.89
2019-05-07T20:48:44.621Z,98742.84
2019-05-07T20:51:12.850Z,98741.05
2019-05-07T20:53:57.975Z,98731.36
2019-05-07T20:56:36.745Z,98736.64
2019-05-07T20:59:05.048Z,98730.91
2019-05-07T21:01:33.268Z,98727.80
2019-05-07T21:04:02.167Z,98729.10
2019-05-07T21:06:32.340Z,98725.98
2019-05-07T21:09:00.890Z,98720.75
2019-05-07T21:11:29.110Z,98726.03
2019-05-07T21:13:57.390Z,98720.75
2019-05-07T21:16:25.611Z,98714.16
2019-05-07T21:18:53.854Z,98719.88
2019-05-07T21:21:22.144Z,98715.44
2019-05-07T21:23:52.532Z,98716.70
2019-05-07T21:26:22.410Z,98712.25
2019-05-07T21:28:52.590Z,98712.64
2019-05-07T21:31:22.554Z,98706.48
2019-05-07T21:33:52.377Z,98708.19
2019-05-07T21:36:22.609Z,98700.69
2019-05-07T21:38:51.822Z,98702.88
2019-05-07T21:41:22.583Z,98696.66
2019-05-07T21:43:52.586Z,98694.84
2019-05-07T21:46:22.207Z,98688.68
2019-05-07T21:48:51.789Z,98690.81
2019-05-07T21:51:22.644Z,98689.55
2019-05-07T21:54:07.073Z,98686.49
2019-05-07T21:56:46.111Z,98683.94
2019-05-07T21:59:16.009Z,98681.76
2019-05-07T22:01:45.951Z,98686.16
2019-05-07T22:04:14.228Z,98679.56
2019-05-07T22:06:45.425Z,98677.80
2019-05-07T22:09:13.279Z,98673.84
2019-05-07T22:11:42.747Z,98669.89
2019-05-07T22:14:12.914Z,98669.46
2019-05-07T22:16:41.249Z,98665.94
2019-05-07T22:19:11.931Z,98654.08
2019-05-07T22:21:39.751Z,98666.81
2019-05-07T22:24:08.151Z,98661.12
2019-05-07T22:26:36.511Z,98660.23
2019-05-07T22:29:04.753Z,98654.52
2019-05-07T22:31:43.900Z,98645.73
2019-05-07T22:34:12.825Z,98649.67
2019-05-07T22:36:43.151Z,98637.32
2019-05-07T22:39:12.584Z,98633.38
2019-05-07T22:41:42.475Z,98637.77
2019-05-07T22:44:12.017Z,98632.93
2019-05-07T22:46:42.191Z,98631.13
2019-05-07T22:49:12.268Z,98626.73
2019-05-07T22:51:40.857Z,98627.66
2019-05-07T22:54:09.195Z,98619.31
2019-05-07T22:56:57.044Z,98621.51
2019-05-07T22:59:25.392Z,98617.99
2019-05-07T23:01:54.946Z,98619.27
2019-05-07T23:04:23.787Z,98612.66
2019-05-07T23:06:52.776Z,98605.42
2019-05-07T23:09:22.336Z,98610.14
2019-05-07T23:11:52.725Z,98601.28
2019-05-07T23:14:22.567Z,98603.02
2019-05-07T23:16:52.647Z,98595.95
2019-05-07T23:19:22.049Z,98598.56
2019-05-07T23:21:52.184Z,98591.16
2019-05-07T23:24:22.568Z,98578.39
2019-05-07T23:26:52.938Z,98577.48
2019-05-07T23:29:22.508Z,98572.12
2019-05-07T23:31:52.882Z,98574.19
2019-05-07T23:34:21.964Z,98568.00
2019-05-07T23:36:53.012Z,98567.54
2019-05-07T23:39:22.133Z,98560.61
2019-05-07T23:41:54.675Z,98564.98
2019-05-07T23:44:23.226Z,98559.17
2019-05-07T23:46:52.046Z,98560.08
2019-05-07T23:49:23.014Z,98557.33
2019-05-07T23:51:52.822Z,98555.99
2019-05-07T23:54:23.014Z,98555.13
2019-05-07T23:57:04.458Z,98546.27
2019-05-07T23:59:22.202Z,98544.19
